| time (UTC) | temp F | wind direction | speed MPH | gust MPH | rain 1hr in | rain 24hr in | rain mn in | humidity % | barometer mb |
| 20260508054007 | 41 | 307 | 5.0 | 9.0 | 0.00 | 0.00 | 0.00 | 63 | 1019.9 |
| 20260508053511 | 41 | 296 | 5.0 | 10.0 | 0.00 | 0.00 | 0.00 | 62 | 1019.9 |
| 20260508053028 | 41 | 286 | 6.0 | 10.0 | 0.00 | 0.00 | 0.00 | 62 | 1019.9 |
| 20260508052507 | 42 | 273 | 8.0 | 12.0 | 0.00 | 0.00 | 0.00 | 61 | 1019.9 |
| 20260508052011 | 42 | 276 | 5.0 | 17.0 | 0.00 | 0.00 | 0.00 | 61 | 1019.9 |
| 20260508051518 | 42 | 278 | 9.0 | 17.0 | 0.00 | 0.00 | 0.00 | 61 | 1020.0 |
| 20260508051008 | 42 | 243 | 6.0 | 10.0 | 0.00 | 0.00 | 0.00 | 62 | 1020.0 |
| 20260508050509 | 42 | 261 | 4.0 | 13.0 | 0.00 | 0.00 | 0.00 | 61 | 1020.0 |
| 20260508050021 | 42 | 279 | 8.0 | 13.0 | 0.00 | 0.00 | 0.00 | 61 | 1020.0 |
| 20260508045509 | 41 | 252 | 3.0 | 9.0 | 0.00 | 0.00 | 0.00 | 64 | 1019.9 |
| 20260508045003 | 42 | 3 | 4.0 | 11.0 | 0.00 | 0.00 | 0.00 | 64 | 1020.0 |
| 20260508044505 | 42 | 285 | 8.0 | 17.0 | 0.00 | 0.00 | 0.00 | 61 | 1020.0 |
| 20260508044004 | 42 | 247 | 8.0 | 19.0 | 0.00 | 0.00 | 0.00 | 61 | 1020.0 |
| 20260508043504 | 43 | 262 | 11.0 | 19.0 | 0.00 | 0.00 | 0.00 | 60 | 1020.1 |
| 20260508043009 | 43 | 263 | 7.0 | 17.0 | 0.00 | 0.00 | 0.00 | 58 | 1020.1 |
| 20260508042504 | 43 | 274 | 11.0 | 17.0 | 0.00 | 0.00 | 0.00 | 59 | 1019.9 |
| 20260508042004 | 43 | 320 | 6.0 | 11.0 | 0.00 | 0.00 | 0.00 | 60 | 1020.1 |
| 20260508041515 | 43 | 313 | 7.0 | 10.0 | 0.00 | 0.00 | 0.00 | 58 | 1020.0 |
| 20260508041008 | 43 | 251 | 5.0 | 12.0 | 0.00 | 0.00 | 0.00 | 57 | 1019.8 |
| 20260508040508 | 44 | 268 | 8.0 | 13.0 | 0.00 | 0.00 | 0.00 | 56 | 1019.7 |
| 20260508040035 | 44 | 269 | 9.0 | 15.0 | 0.00 | 0.00 | 0.00 | 56 | 1019.8 |
| 20260508035508 | 44 | 271 | 7.0 | 15.0 | 0.00 | 0.00 | 0.00 | 56 | 1019.8 |
| 20260508035008 | 44 | 273 | 8.0 | 15.0 | 0.00 | 0.00 | 0.00 | 55 | 1019.7 |
| 20260508034537 | 44 | 283 | 11.0 | 15.0 | 0.00 | 0.00 | 0.00 | 55 | 1019.8 |
| 20260508034007 | 44 | 270 | 6.0 | 13.0 | 0.00 | 0.00 | 0.00 | 58 | 1019.8 |
| 20260508033509 | 43 | 257 | 7.0 | 13.0 | 0.00 | 0.00 | 0.00 | 59 | 1019.8 |
| 20260508033007 | 44 | 274 | 2.0 | 10.0 | 0.00 | 0.00 | 0.00 | 59 | 1019.8 |
| 20260508032505 | 44 | 20 | 3.0 | 8.0 | 0.00 | 0.00 | 0.00 | 58 | 1019.7 |
| 20260508032005 | 45 | 336 | 3.0 | 7.0 | 0.00 | 0.00 | 0.00 | 55 | 1019.6 |
| 20260508031515 | 45 | 274 | 4.0 | 7.0 | 0.00 | 0.00 | 0.00 | 55 | 1019.8 |
| 20260508031005 | 45 | 281 | 4.0 | 7.0 | 0.00 | 0.00 | 0.00 | 55 | 1019.8 |
| 20260508030504 | 44 | 308 | 5.0 | 11.0 | 0.00 | 0.00 | 0.00 | 55 | 1019.5 |
| 20260508030014 | 44 | 304 | 6.0 | 11.0 | 0.00 | 0.00 | 0.00 | 56 | 1019.5 |
| 20260508025508 | 43 | 283 | 2.0 | 8.0 | 0.00 | 0.00 | 0.00 | 60 | 1019.3 |
| 20260508025009 | 43 | 294 | 2.0 | 8.0 | 0.00 | 0.00 | 0.00 | 63 | 1019.2 |
| 20260508024525 | 43 | 212 | 4.0 | 12.0 | 0.00 | 0.00 | 0.00 | 62 | 1019.0 |
| 20260508024011 | 44 | 293 | 7.0 | 12.0 | 0.00 | 0.00 | 0.00 | 56 | 1019.1 |
| 20260508023509 | 44 | 243 | 5.0 | 9.0 | 0.00 | 0.00 | 0.00 | 57 | 1019.1 |
| 20260508023021 | 44 | 281 | 6.0 | 9.0 | 0.00 | 0.00 | 0.00 | 57 | 1019.0 |
| 20260508022509 | 44 | 248 | 5.0 | 8.0 | 0.00 | 0.00 | 0.00 | 57 | 1018.9 |
| 20260508022008 | 44 | 273 | 6.0 | 10.0 | 0.00 | 0.00 | 0.00 | 56 | 1018.9 |
| 20260508021507 | 45 | 255 | 5.0 | 13.0 | 0.00 | 0.00 | 0.00 | 55 | 1018.9 |
| 20260508021004 | 45 | 284 | 8.0 | 18.0 | 0.00 | 0.00 | 0.00 | 54 | 1018.9 |
| 20260508020504 | 45 | 277 | 9.0 | 18.0 | 0.00 | 0.00 | 0.00 | 54 | 1018.8 |
| 20260508020007 | 45 | 283 | 9.0 | 16.0 | 0.00 | 0.00 | 0.00 | 54 | 1018.8 |
| 20260508015504 | 45 | 269 | 10.0 | 21.0 | 0.00 | 0.00 | 0.00 | 54 | 1018.7 |
| 20260508015006 | 45 | 278 | 10.0 | 23.0 | 0.00 | 0.00 | 0.00 | 54 | 1018.6 |
| 20260508014516 | 45 | 236 | 12.0 | 23.0 | 0.00 | 0.00 | 0.00 | 54 | 1018.5 |
| 20260508014007 | 45 | 268 | 12.0 | 22.0 | 0.00 | 0.00 | 0.00 | 54 | 1018.6 |
| 20260508013505 | 45 | 283 | 12.0 | 22.0 | 0.00 | 0.00 | 0.00 | 55 | 1018.6 |
| 20260508013017 | 45 | 262 | 12.0 | 22.0 | 0.00 | 0.00 | 0.00 | 55 | 1018.6 |
| 20260508012510 | 45 | 266 | 16.0 | 22.0 | 0.00 | 0.00 | 0.00 | 55 | 1018.6 |
| 20260508012008 | 45 | 250 | 12.0 | 19.0 | 0.00 | 0.00 | 0.00 | 57 | 1018.5 |
| 20260508011523 | 45 | 252 | 9.0 | 22.0 | 0.00 | 0.00 | 0.00 | 57 | 1018.7 |
| 20260508011009 | 45 | 274 | 11.0 | 22.0 | 0.00 | 0.00 | 0.00 | 56 | 1018.8 |
| 20260508010509 | 45 | 281 | 13.0 | 22.0 | 0.00 | 0.00 | 0.00 | 55 | 1018.8 |
| 20260508010029 | 45 | 263 | 11.0 | 22.0 | 0.00 | 0.00 | 0.00 | 56 | 1018.8 |
| 20260508005505 | 45 | 274 | 15.0 | 22.0 | 0.00 | 0.00 | 0.00 | 54 | 1018.7 |
| 20260508005006 | 46 | 258 | 10.0 | 17.0 | 0.00 | 0.00 | 0.00 | 55 | 1018.7 |
| 20260508004510 | 46 | 273 | 7.0 | 20.0 | 0.00 | 0.00 | 0.00 | 54 | 1018.8 |
| 20260508004007 | 46 | 266 | 10.0 | 20.0 | 0.00 | 0.00 | 0.00 | 55 | 1018.7 |
| 20260508003508 | 46 | 254 | 9.0 | 19.0 | 0.00 | 0.00 | 0.00 | 55 | 1018.7 |
| 20260508003018 | 46 | 255 | 6.0 | 18.0 | 0.00 | 0.00 | 0.00 | 54 | 1018.8 |
| 20260508002505 | 46 | 249 | 11.0 | 21.0 | 0.00 | 0.00 | 0.00 | 54 | 1018.8 |
| 20260508002010 | 46 | 277 | 9.0 | 23.0 | 0.00 | 0.00 | 0.00 | 55 | 1018.7 |
| 20260508001519 | 46 | 240 | 15.0 | 29.0 | 0.00 | 0.00 | 0.00 | 53 | 1018.6 |
| 20260508001008 | 47 | 278 | 18.0 | 31.0 | 0.00 | 0.00 | 0.00 | 52 | 1018.5 |
| 20260508000512 | 47 | 271 | 16.0 | 31.0 | 0.00 | 0.00 | 0.00 | 52 | 1018.5 |
| 20260508000027 | 48 | 265 | 21.0 | 29.0 | 0.00 | 0.00 | 0.00 | 47 | 1018.4 |
| 20260507235507 | 48 | 279 | 13.0 | 26.0 | 0.00 | 0.00 | 0.00 | 43 | 1018.4 |
| 20260507235010 | 48 | 259 | 7.0 | 18.0 | 0.00 | 0.00 | 0.00 | 45 | 1018.1 |
| 20260507234542 | 49 | 298 | 7.0 | 24.0 | 0.00 | 0.00 | 0.00 | 44 | 1018.0 |
| 20260507234002 | 49 | 274 | 13.0 | 24.0 | 0.00 | 0.00 | 0.00 | 43 | 1018.1 |
| 20260507233504 | 49 | 295 | 9.0 | 19.0 | 0.00 | 0.00 | 0.00 | 43 | 1018.1 |
| 20260507233018 | 50 | 248 | 10.0 | 25.0 | 0.00 | 0.00 | 0.00 | 43 | 1018.2 |
| 20260507232504 | 50 | 269 | 15.0 | 31.0 | 0.00 | 0.00 | 0.00 | 42 | 1018.1 |
| 20260507232007 | 50 | 282 | 21.0 | 31.0 | 0.00 | 0.00 | 0.00 | 43 | 1018.3 |
| 20260507231515 | 49 | 276 | 18.0 | 26.0 | 0.00 | 0.00 | 0.00 | 45 | 1018.3 |
| 20260507231008 | 50 | 295 | 19.0 | 26.0 | 0.00 | 0.00 | 0.00 | 44 | 1018.2 |
| 20260507230506 | 51 | 264 | 17.0 | 24.0 | 0.00 | 0.00 | 0.00 | 45 | 1018.2 |
| 20260507230023 | 50 | 256 | 13.0 | 24.0 | 0.00 | 0.00 | 0.00 | 44 | 1018.2 |
| 20260507225509 | 50 | 269 | 12.0 | 27.0 | 0.00 | 0.00 | 0.00 | 46 | 1018.2 |
| 20260507225009 | 48 | 289 | 19.0 | 30.0 | 0.00 | 0.00 | 0.00 | 46 | 1018.5 |
| 20260507224528 | 48 | 268 | 17.0 | 30.0 | 0.00 | 0.00 | 0.00 | 47 | 1018.8 |
| 20260507224003 | 49 | 264 | 19.0 | 30.0 | 0.00 | 0.00 | 0.00 | 43 | 1018.7 |
| 20260507223503 | 51 | 254 | 15.0 | 30.0 | 0.00 | 0.00 | 0.00 | 43 | 1018.4 |
| 20260507223010 | 49 | 269 | 20.0 | 33.0 | 0.00 | 0.00 | 0.00 | 43 | 1018.5 |
| 20260507222502 | 49 | 281 | 24.0 | 33.0 | 0.00 | 0.00 | 0.00 | 42 | 1018.8 |
| 20260507222004 | 50 | 290 | 18.0 | 37.0 | 0.00 | 0.00 | 0.00 | 40 | 1018.5 |
| 20260507221522 | 51 | 285 | 19.0 | 37.0 | 0.00 | 0.00 | 0.00 | 43 | 1018.5 |
| 20260507221008 | 49 | 267 | 11.0 | 24.0 | 0.00 | 0.00 | 0.00 | 43 | 1018.6 |
| 20260507220508 | 48 | 284 | 15.0 | 24.0 | 0.00 | 0.00 | 0.00 | 43 | 1018.7 |
| 20260507220021 | 49 | 276 | 13.0 | 23.0 | 0.00 | 0.00 | 0.00 | 43 | 1018.7 |
| 20260507215510 | 50 | 290 | 13.0 | 25.0 | 0.00 | 0.00 | 0.00 | 40 | 1018.8 |
| 20260507215008 | 49 | 323 | 14.0 | 25.0 | 0.00 | 0.00 | 0.00 | 39 | 1018.8 |
| 20260507214524 | 49 | 262 | 15.0 | 23.0 | 0.00 | 0.00 | 0.00 | 45 | 1018.9 |
| 20260507214009 | 50 | 264 | 13.0 | 23.0 | 0.00 | 0.00 | 0.00 | 43 | 1019.0 |
| 20260507213504 | 51 | 248 | 10.0 | 32.0 | 0.00 | 0.00 | 0.00 | 46 | 1019.1 |
| 20260507213009 | 49 | 283 | 19.0 | 32.0 | 0.00 | 0.00 | 0.00 | 44 | 1019.0 |
| 20260507212504 | 50 | 266 | 11.0 | 24.0 | 0.00 | 0.00 | 0.00 | 43 | 1019.1 |
| 20260507212003 | 50 | 278 | 17.0 | 28.0 | 0.00 | 0.00 | 0.00 | 46 | 1019.5 |
| 20260507211510 | 50 | 260 | 9.0 | 28.0 | 0.00 | 0.00 | 0.00 | 49 | 1019.4 |
| 20260507211008 | 49 | 254 | 13.0 | 27.0 | 0.00 | 0.00 | 0.00 | 47 | 1019.4 |
| 20260507210506 | 49 | 298 | 15.0 | 32.0 | 0.00 | 0.00 | 0.00 | 46 | 1019.7 |
| 20260507210018 | 48 | 275 | 14.0 | 32.0 | 0.00 | 0.00 | 0.00 | 49 | 1019.6 |
| 20260507205506 | 48 | 276 | 22.0 | 40.0 | 0.00 | 0.00 | 0.00 | 46 | 1019.8 |
| 20260507205008 | 47 | 314 | 16.0 | 40.0 | 0.00 | 0.00 | 0.00 | 47 | 1019.8 |
| 20260507204522 | 48 | 239 | 10.0 | 31.0 | 0.00 | 0.00 | 0.00 | 48 | 1019.8 |
| 20260507204008 | 48 | 290 | 17.0 | 32.0 | 0.00 | 0.00 | 0.00 | 49 | 1019.9 |
| 20260507203511 | 47 | 256 | 21.0 | 32.0 | 0.00 | 0.00 | 0.00 | 48 | 1019.9 |
| 20260507203026 | 48 | 271 | 15.0 | 36.0 | 0.00 | 0.00 | 0.00 | 52 | 1020.1 |
| 20260507202508 | 47 | 255 | 17.0 | 36.0 | 0.00 | 0.00 | 0.00 | 48 | 1019.9 |
| 20260507202004 | 49 | 257 | 9.0 | 30.0 | 0.00 | 0.00 | 0.00 | 52 | 1019.9 |
| 20260507201507 | 48 | 252 | 13.0 | 27.0 | 0.00 | 0.00 | 0.00 | 53 | 1019.8 |
| 20260507201004 | 47 | 259 | 17.0 | 32.0 | 0.00 | 0.00 | 0.00 | 52 | 1020.0 |
| 20260507200504 | 46 | 244 | 17.0 | 32.0 | 0.00 | 0.00 | 0.00 | 52 | 1020.1 |
| 20260507200014 | 48 | 265 | 18.0 | 28.0 | 0.00 | 0.00 | 0.00 | 50 | 1020.2 |
| 20260507195503 | 48 | 262 | 16.0 | 29.0 | 0.00 | 0.00 | 0.00 | 54 | 1020.3 |
| 20260507195011 | 47 | 288 | 14.0 | 35.0 | 0.00 | 0.00 | 0.00 | 53 | 1019.9 |
| 20260507194529 | 46 | 285 | 21.0 | 35.0 | 0.00 | 0.00 | 0.00 | 50 | 1020.1 |
| 20260507194007 | 47 | 294 | 19.0 | 31.0 | 0.00 | 0.00 | 0.00 | 53 | 1019.8 |
| 20260507193513 | 45 | 272 | 20.0 | 30.0 | 0.00 | 0.00 | 0.00 | 52 | 1019.9 |
| 20260507193020 | 46 | 274 | 18.0 | 27.0 | 0.00 | 0.00 | 0.00 | 52 | 1020.1 |
| 20260507192508 | 45 | 262 | 19.0 | 29.0 | 0.00 | 0.00 | 0.00 | 51 | 1020.1 |
| 20260507192007 | 45 | 285 | 18.0 | 30.0 | 0.00 | 0.00 | 0.00 | 49 | 1020.1 |
| 20260507191526 | 45 | 288 | 22.0 | 30.0 | 0.00 | 0.00 | 0.00 | 50 | 1020.2 |
| 20260507191009 | 45 | 246 | 14.0 | 24.0 | 0.00 | 0.00 | 0.00 | 52 | 1020.2 |
| 20260507190509 | 44 | 271 | 17.0 | 31.0 | 0.00 | 0.00 | 0.00 | 51 | 1020.5 |
| 20260507190013 | 44 | 274 | 18.0 | 32.0 | 0.00 | 0.00 | 0.00 | 50 | 1020.6 |
| 20260507185507 | 45 | 274 | 16.0 | 32.0 | 0.00 | 0.00 | 0.00 | 53 | 1020.6 |
| 20260507185008 | 44 | 274 | 19.0 | 32.0 | 0.00 | 0.00 | 0.00 | 50 | 1020.6 |
| 20260507184511 | 44 | 291 | 15.0 | 31.0 | 0.00 | 0.00 | 0.00 | 51 | 1020.7 |
| 20260507184008 | 44 | 277 | 17.0 | 30.0 | 0.00 | 0.00 | 0.00 | 49 | 1020.8 |
| 20260507183508 | 45 | 248 | 16.0 | 26.0 | 0.00 | 0.00 | 0.00 | 49 | 1020.7 |
| 20260507183020 | 44 | 247 | 17.0 | 26.0 | 0.00 | 0.01 | 0.00 | 51 | 1020.6 |
| 20260507182508 | 43 | 268 | 17.0 | 26.0 | 0.00 | 0.01 | 0.00 | 51 | 1020.7 |
| 20260507182010 | 44 | 257 | 16.0 | 24.0 | 0.00 | 0.02 | 0.00 | 51 | 1020.6 |
| 20260507181526 | 43 | 240 | 13.0 | 30.0 | 0.00 | 0.02 | 0.00 | 50 | 1020.6 |
| 20260507181007 | 42 | 309 | 14.0 | 30.0 | 0.00 | 0.03 | 0.00 | 52 | 1020.6 |
| 20260507180508 | 42 | 282 | 9.0 | 23.0 | 0.00 | 0.04 | 0.00 | 52 | 1020.8 |
| 20260507180026 | 42 | 277 | 15.0 | 23.0 | 0.00 | 0.05 | 0.00 | 51 | 1020.7 |
| 20260507175508 | 43 | 264 | 10.0 | 21.0 | 0.00 | 0.07 | 0.00 | 54 | 1020.9 |
| 20260507175008 | 42 | 263 | 13.0 | 21.0 | 0.00 | 0.09 | 0.00 | 51 | 1021.0 |
| 20260507174513 | 42 | 262 | 8.0 | 21.0 | 0.00 | 0.11 | 0.00 | 54 | 1021.2 |
| 20260507174006 | 42 | 299 | 11.0 | 21.0 | 0.00 | 0.13 | 0.00 | 53 | 1021.2 |
| 20260507173513 | 41 | 284 | 12.0 | 19.0 | 0.00 | 0.13 | 0.00 | 53 | 1021.1 |
| 20260507173034 | 41 | 240 | 12.0 | 19.0 | 0.00 | 0.13 | 0.00 | 53 | 1021.1 |
| 20260507172508 | 40 | 268 | 9.0 | 16.0 | 0.00 | 0.13 | 0.00 | 52 | 1021.3 |
| 20260507172004 | 40 | 255 | 9.0 | 18.0 | 0.00 | 0.13 | 0.00 | 52 | 1021.4 |
| 20260507171521 | 40 | 300 | 7.0 | 18.0 | 0.00 | 0.13 | 0.00 | 55 | 1021.5 |
| 20260507171010 | 39 | 286 | 10.0 | 21.0 | 0.00 | 0.13 | 0.00 | 53 | 1021.6 |
| 20260507170509 | 39 | 278 | 12.0 | 21.0 | 0.00 | 0.13 | 0.00 | 53 | 1021.6 |
| 20260507170024 | 39 | 257 | 12.0 | 18.0 | 0.00 | 0.13 | 0.00 | 53 | 1021.5 |
| 20260507165508 | 38 | 279 | 7.0 | 12.0 | 0.00 | 0.13 | 0.00 | 54 | 1021.7 |
| 20260507165009 | 38 | 297 | 6.0 | 15.0 | 0.00 | 0.13 | 0.00 | 55 | 1021.7 |
| 20260507164533 | 37 | 294 | 7.0 | 15.0 | 0.00 | 0.13 | 0.00 | 56 | 1021.7 |
| 20260507164011 | 37 | 285 | 9.0 | 15.0 | 0.00 | 0.13 | 0.00 | 55 | 1021.7 |
| 20260507163507 | 37 | 279 | 8.0 | 17.0 | 0.00 | 0.13 | 0.00 | 56 | 1021.7 |
| 20260507163014 | 37 | 266 | 9.0 | 17.0 | 0.00 | 0.13 | 0.00 | 56 | 1021.7 |
| 20260507162508 | 37 | 286 | 8.0 | 17.0 | 0.00 | 0.13 | 0.00 | 57 | 1021.7 |
| 20260507162006 | 37 | 274 | 9.0 | 17.0 | 0.00 | 0.13 | 0.00 | 57 | 1021.8 |
| 20260507161518 | 36 | 281 | 6.0 | 13.0 | 0.00 | 0.13 | 0.00 | 58 | 1022.0 |
| 20260507161007 | 36 | 231 | 2.0 | 6.0 | 0.00 | 0.13 | 0.00 | 59 | 1022.1 |
| 20260507160512 | 36 | 207 | 1.0 | 4.0 | 0.00 | 0.13 | 0.00 | 59 | 1022.1 |
| 20260507160025 | 35 | 229 | 0.0 | 3.0 | 0.00 | 0.13 | 0.00 | 56 | 1022.2 |
| 20260507155509 | 35 | 186 | 1.0 | 5.0 | 0.00 | 0.13 | 0.00 | 59 | 1022.2 |
| 20260507155010 | 35 | 263 | 2.0 | 5.0 | 0.00 | 0.13 | 0.00 | 56 | 1022.3 |
| 20260507154523 | 35 | 304 | 2.0 | 4.0 | 0.00 | 0.13 | 0.00 | 56 | 1022.4 |
| 20260507154008 | 34 | 154 | 2.0 | 5.0 | 0.00 | 0.13 | 0.00 | 59 | 1022.4 |
| 20260507153507 | 34 | 226 | 3.0 | 5.0 | 0.00 | 0.13 | 0.00 | 57 | 1022.4 |
| 20260507153034 | 33 | 347 | 1.0 | 4.0 | 0.00 | 0.13 | 0.00 | 58 | 1022.5 |
| 20260507152520 | 33 | 323 | 2.0 | 6.0 | 0.00 | 0.13 | 0.00 | 57 | 1022.4 |
| 20260507152010 | 32 | 250 | 2.0 | 6.0 | 0.00 | 0.13 | 0.00 | 57 | 1022.5 |
| 20260507151531 | 33 | 173 | 0.0 | 5.0 | 0.00 | 0.13 | 0.00 | 58 | 1022.5 |
| 20260507151004 | 32 | 165 | 3.0 | 5.0 | 0.00 | 0.13 | 0.00 | 58 | 1022.7 |
| 20260507150505 | 32 | 214 | 1.0 | 5.0 | 0.00 | 0.13 | 0.00 | 59 | 1022.7 |
| 20260507150018 | 32 | 200 | 3.0 | 5.0 | 0.00 | 0.13 | 0.00 | 58 | 1022.8 |
| 20260507145507 | 32 | 165 | 2.0 | 4.0 | 0.00 | 0.13 | 0.00 | 57 | 1022.9 |
| 20260507145011 | 31 | 245 | 1.0 | 2.0 | 0.00 | 0.13 | 0.00 | 56 | 1023.0 |
| 20260507144530 | 31 | 195 | 0.0 | 2.0 | 0.00 | 0.13 | 0.00 | 60 | 1023.0 |
| 20260507144007 | 30 | 205 | 0.0 | 0.0 | 0.00 | 0.13 | 0.00 | 63 | 1023.0 |
| 20260507143508 | 29 | 205 | 0.0 | 1.0 | 0.00 | 0.13 | 0.00 | 71 | 1023.0 |
| 20260507143027 | 28 | 219 | 0.0 | 1.0 | 0.00 | 0.13 | 0.00 | 71 | 1023.0 |
| 20260507142509 | 27 | 205 | 0.0 | 0.0 | 0.00 | 0.13 | 0.00 | 69 | 1023.1 |
| 20260507142008 | 26 | 205 | 0.0 | 0.0 | 0.00 | 0.13 | 0.00 | 72 | 1023.4 |
| 20260507141529 | 26 | 205 | 0.0 | 0.0 | 0.00 | 0.13 | 0.00 | 75 | 1023.5 |
| 20260507141011 | 25 | 205 | 0.0 | 1.0 | 0.00 | 0.13 | 0.00 | 74 | 1023.5 |
| 20260507140512 | 25 | 219 | 1.0 | 1.0 | 0.00 | 0.13 | 0.00 | 74 | 1023.5 |
| 20260507140028 | 25 | 263 | 0.0 | 1.0 | 0.00 | 0.13 | 0.00 | 74 | 1023.5 |
| 20260507135508 | 25 | 263 | 0.0 | 1.0 | 0.00 | 0.13 | 0.00 | 75 | 1023.5 |
| 20260507135007 | 25 | 263 | 0.0 | 1.0 | 0.00 | 0.13 | 0.00 | 74 | 1023.6 |
| 20260507134518 | 25 | 217 | 0.0 | 1.0 | 0.00 | 0.13 | 0.00 | 72 | 1023.4 |
| 20260507134004 | 26 | 117 | 0.0 | 1.0 | 0.00 | 0.13 | 0.00 | 74 | 1023.4 |
| 20260507133503 | 26 | 148 | 0.0 | 1.0 | 0.00 | 0.13 | 0.00 | 71 | 1023.4 |
| 20260507133006 | 26 | 148 | 0.0 | 1.0 | 0.00 | 0.13 | 0.00 | 75 | 1023.5 |
| 20260507132505 | 25 | 148 | 0.0 | 1.0 | 0.00 | 0.13 | 0.00 | 79 | 1023.5 |
| 20260507132006 | 24 | 224 | 0.0 | 1.0 | 0.00 | 0.13 | 0.00 | 76 | 1023.5 |
| 20260507131516 | 23 | 224 | 0.0 | 1.0 | 0.00 | 0.13 | 0.00 | 81 | 1023.2 |
| 20260507131005 | 22 | 224 | 0.0 | 1.0 | 0.00 | 0.13 | 0.00 | 81 | 1023.2 |
| 20260507130506 | 22 | 224 | 0.0 | 2.0 | 0.00 | 0.13 | 0.00 | 80 | 1023.2 |
| 20260507130009 | 23 | 224 | 1.0 | 2.0 | 0.00 | 0.13 | 0.00 | 80 | 1023.4 |
| 20260507125507 | 23 | 246 | 1.0 | 2.0 | 0.00 | 0.13 | 0.00 | 81 | 1023.4 |
| 20260507125004 | 22 | 204 | 0.0 | 0.0 | 0.00 | 0.13 | 0.00 | 82 | 1023.2 |
| 20260507124513 | 22 | 204 | 0.0 | 0.0 | 0.00 | 0.13 | 0.00 | 82 | 1023.3 |
| 20260507124008 | 22 | 204 | 0.0 | 1.0 | 0.00 | 0.13 | 0.00 | 82 | 1023.2 |
| 20260507123505 | 22 | 204 | 0.0 | 1.0 | 0.00 | 0.13 | 0.00 | 82 | 1023.1 |
| 20260507123009 | 22 | 218 | 0.0 | 1.0 | 0.00 | 0.13 | 0.00 | 82 | 1023.2 |
| 20260507122505 | 22 | 218 | 0.0 | 1.0 | 0.00 | 0.13 | 0.00 | 82 | 1023.1 |
| 20260507122006 | 22 | 232 | 0.0 | 0.0 | 0.00 | 0.13 | 0.00 | 81 | 1023.2 |
| 20260507121510 | 22 | 232 | 0.0 | 1.0 | 0.00 | 0.13 | 0.00 | 79 | 1023.2 |
| 20260507121004 | 23 | 232 | 0.0 | 1.0 | 0.00 | 0.13 | 0.00 | 80 | 1023.2 |
| 20260507120504 | 23 | 222 | 1.0 | 2.0 | 0.00 | 0.13 | 0.00 | 77 | 1023.1 |
| 20260507120008 | 23 | 124 | 0.0 | 2.0 | 0.00 | 0.13 | 0.00 | 80 | 1023.0 |
| 20260507115506 | 24 | 110 | 1.0 | 2.0 | 0.00 | 0.13 | 0.00 | 79 | 1022.8 |
| 20260507115005 | 24 | 110 | 1.0 | 4.0 | 0.00 | 0.13 | 0.00 | 79 | 1022.8 |
| 20260507114512 | 24 | 139 | 2.0 | 4.0 | 0.00 | 0.13 | 0.00 | 80 | 1022.9 |
| 20260507114005 | 24 | 91 | 2.0 | 4.0 | 0.00 | 0.13 | 0.00 | 79 | 1022.9 |
| 20260507113505 | 24 | 117 | 2.0 | 4.0 | 0.00 | 0.13 | 0.00 | 78 | 1022.8 |
| 20260507113034 | 24 | 103 | 2.0 | 3.0 | 0.00 | 0.13 | 0.00 | 79 | 1022.8 |
| 20260507112507 | 24 | 95 | 2.0 | 3.0 | 0.00 | 0.13 | 0.00 | 77 | 1022.8 |
| 20260507112007 | 24 | 108 | 2.0 | 3.0 | 0.00 | 0.13 | 0.00 | 78 | 1022.7 |
| 20260507111512 | 24 | 108 | 2.0 | 3.0 | 0.00 | 0.13 | 0.00 | 78 | 1022.7 |
| 20260507111007 | 24 | 101 | 1.0 | 2.0 | 0.00 | 0.13 | 0.00 | 79 | 1022.7 |
| 20260507110507 | 24 | 101 | 1.0 | 2.0 | 0.00 | 0.13 | 0.00 | 78 | 1022.7 |
| 20260507110016 | 24 | 112 | 1.0 | 2.0 | 0.00 | 0.13 | 0.00 | 78 | 1022.7 |
| 20260507105504 | 24 | 91 | 2.0 | 2.0 | 0.00 | 0.13 | 0.00 | 78 | 1022.7 |
| 20260507105004 | 24 | 101 | 1.0 | 2.0 | 0.00 | 0.13 | 0.00 | 78 | 1022.6 |
| 20260507104506 | 24 | 101 | 1.0 | 3.0 | 0.00 | 0.13 | 0.00 | 79 | 1022.7 |
| 20260507104007 | 24 | 85 | 1.0 | 3.0 | 0.00 | 0.13 | 0.00 | 79 | 1022.7 |
| 20260507103506 | 24 | 103 | 2.0 | 2.0 | 0.00 | 0.13 | 0.00 | 79 | 1022.7 |
| 20260507103017 | 24 | 112 | 1.0 | 2.0 | 0.00 | 0.13 | 0.00 | 80 | 1022.7 |
| 20260507102504 | 24 | 113 | 1.0 | 2.0 | 0.00 | 0.13 | 0.00 | 79 | 1022.7 |
| 20260507102006 | 23 | 113 | 1.0 | 2.0 | 0.00 | 0.13 | 0.00 | 78 | 1022.7 |
| 20260507101518 | 23 | 165 | 0.0 | 0.0 | 0.00 | 0.13 | 0.00 | 78 | 1022.8 |
| 20260507101005 | 23 | 165 | 0.0 | 0.0 | 0.00 | 0.13 | 0.00 | 76 | 1022.7 |
| 20260507100503 | 23 | 165 | 0.0 | 0.0 | 0.00 | 0.13 | 0.00 | 77 | 1022.8 |
| 20260507100014 | 23 | 165 | 0.0 | 0.0 | 0.00 | 0.13 | 0.00 | 76 | 1022.7 |
| 20260507095506 | 23 | 165 | 0.0 | 0.0 | 0.00 | 0.13 | 0.00 | 75 | 1022.7 |
| 20260507095009 | 23 | 164 | 0.0 | 0.0 | 0.00 | 0.13 | 0.00 | 75 | 1022.8 |
| 20260507094516 | 24 | 165 | 0.0 | 2.0 | 0.00 | 0.13 | 0.00 | 75 | 1022.9 |
| 20260507094007 | 24 | 164 | 0.0 | 2.0 | 0.00 | 0.13 | 0.00 | 73 | 1022.8 |
| 20260507093506 | 24 | 207 | 0.0 | 2.0 | 0.00 | 0.13 | 0.00 | 73 | 1022.8 |
| 20260507093005 | 24 | 249 | 0.0 | 0.0 | 0.00 | 0.13 | 0.00 | 74 | 1022.8 |
| 20260507092507 | 24 | 162 | 0.0 | 0.0 | 0.00 | 0.13 | 0.00 | 73 | 1022.7 |
| 20260507092008 | 24 | 162 | 0.0 | 0.0 | 0.00 | 0.13 | 0.00 | 74 | 1022.8 |
| 20260507091510 | 24 | 211 | 0.0 | 1.0 | 0.00 | 0.13 | 0.00 | 72 | 1022.9 |
| 20260507091004 | 24 | 214 | 0.0 | 1.0 | 0.00 | 0.13 | 0.00 | 70 | 1022.8 |
| 20260507090512 | 24 | 269 | 1.0 | 1.0 | 0.00 | 0.13 | 0.00 | 71 | 1022.9 |
| 20260507090015 | 24 | 187 | 0.0 | 1.0 | 0.00 | 0.13 | 0.00 | 72 | 1022.9 |
| 20260507085504 | 24 | 196 | 0.0 | 1.0 | 0.00 | 0.13 | 0.00 | 70 | 1022.9 |
| 20260507085008 | 24 | 259 | 0.0 | 1.0 | 0.00 | 0.13 | 0.00 | 69 | 1022.9 |
| 20260507084517 | 24 | 259 | 0.0 | 1.0 | 0.00 | 0.13 | 0.00 | 70 | 1022.8 |
| 20260507084009 | 25 | 98 | 0.0 | 2.0 | 0.00 | 0.13 | 0.00 | 68 | 1022.8 |
| 20260507083508 | 25 | 98 | 0.0 | 4.0 | 0.00 | 0.13 | 0.00 | 67 | 1022.8 |
| 20260507083016 | 25 | 91 | 3.0 | 4.0 | 0.00 | 0.13 | 0.00 | 66 | 1023.0 |
| 20260507082507 | 26 | 113 | 2.0 | 4.0 | 0.00 | 0.13 | 0.00 | 65 | 1022.9 |
| 20260507082007 | 26 | 123 | 2.0 | 4.0 | 0.00 | 0.13 | 0.00 | 65 | 1022.9 |
| 20260507081509 | 25 | 105 | 2.0 | 5.0 | 0.00 | 0.13 | 0.00 | 65 | 1022.9 |
| 20260507081003 | 25 | 105 | 3.0 | 5.0 | 0.00 | 0.13 | 0.00 | 65 | 1022.9 |
| 20260507080508 | 25 | 100 | 3.0 | 4.0 | 0.00 | 0.13 | 0.00 | 66 | 1023.0 |
| 20260507080012 | 25 | 99 | 1.0 | 3.0 | 0.00 | 0.13 | 0.00 | 66 | 1022.8 |
| 20260507075504 | 25 | 263 | 0.0 | 0.0 | 0.00 | 0.13 | 0.00 | 66 | 1023.0 |
| 20260507075008 | 25 | 263 | 0.0 | 0.0 | 0.00 | 0.13 | 0.00 | 66 | 1022.8 |
| 20260507074518 | 25 | 263 | 0.0 | 0.0 | 0.00 | 0.13 | 0.00 | 67 | 1022.9 |
| 20260507074005 | 25 | 263 | 0.0 | 0.0 | 0.00 | 0.13 | 0.00 | 67 | 1023.0 |
| 20260507073512 | 25 | 263 | 0.0 | 0.0 | 0.00 | 0.13 | 0.00 | 68 | 1023.1 |
| 20260507073020 | 25 | 263 | 0.0 | 0.0 | 0.00 | 0.13 | 0.00 | 68 | 1023.2 |
| 20260507072508 | 25 | 263 | 0.0 | 0.0 | 0.00 | 0.13 | 0.00 | 68 | 1023.2 |
| 20260507072007 | 25 | 263 | 0.0 | 0.0 | 0.00 | 0.13 | 0.00 | 68 | 1023.2 |
| 20260507071521 | 25 | 263 | 0.0 | 0.0 | 0.00 | 0.13 | 0.00 | 69 | 1023.2 |
| 20260507071007 | 24 | 263 | 0.0 | 1.0 | 0.00 | 0.13 | 0.00 | 70 | 1023.2 |
| 20260507070509 | 24 | 263 | 0.0 | 1.0 | 0.00 | 0.13 | 0.00 | 70 | 1023.2 |
| 20260507070021 | 24 | 263 | 0.0 | 1.0 | 0.00 | 0.13 | 0.00 | 70 | 1023.2 |
| 20260507065507 | 24 | 272 | 0.0 | 2.0 | 0.00 | 0.13 | 0.00 | 69 | 1023.2 |
| 20260507065004 | 25 | 273 | 0.0 | 4.0 | 0.00 | 0.13 | 0.00 | 68 | 1023.2 |
| 20260507064515 | 25 | 233 | 2.0 | 4.0 | 0.00 | 0.13 | 0.00 | 66 | 1023.1 |
| 20260507064004 | 26 | 214 | 1.0 | 4.0 | 0.00 | 0.13 | 0.00 | 63 | 1023.1 |
| 20260507063509 | 26 | 182 | 1.0 | 2.0 | 0.00 | 0.13 | 0.00 | 63 | 1023.1 |
| 20260507063023 | 27 | 159 | 0.0 | 1.0 | 0.00 | 0.13 | 0.00 | 63 | 1023.2 |
| 20260507062508 | 27 | 156 | 1.0 | 1.0 | 0.00 | 0.13 | 0.00 | 61 | 1023.1 |
| 20260507062007 | 26 | 113 | 0.0 | 3.0 | 0.00 | 0.13 | 0.00 | 62 | 1023.1 |
| 20260507061522 | 26 | 105 | 1.0 | 3.0 | 0.00 | 0.13 | 0.00 | 63 | 1023.2 |
| 20260507061006 | 27 | 103 | 2.0 | 3.0 | 0.00 | 0.13 | 0.00 | 62 | 1023.1 |
| 20260507060507 | 27 | 101 | 3.0 | 3.0 | 0.00 | 0.13 | 0.00 | 62 | 1023.0 |
| 20260507060022 | 27 | 137 | 0.0 | 5.0 | 0.00 | 0.13 | 0.00 | 61 | 1023.0 |
| 20260507055506 | 27 | 281 | 2.0 | 7.0 | 0.00 | 0.13 | 0.13 | 62 | 1023.1 |
| 20260507055014 | 27 | 333 | 1.0 | 7.0 | 0.00 | 0.13 | 0.13 | 63 | 1023.2 |
| 20260507054524 | 27 | 295 | 5.0 | 8.0 | 0.00 | 0.13 | 0.13 | 61 | 1023.3 |